Humidity-temperature Sensor

Selected Measurement Type: Air Temperature

 
Air Temperature [°C]     6 entries per hour
Showing data from 3/3/2017 (00:00:00 Z) to 2/24/2017 (00:01:00 Z)
Previous Next [ Day | 3-Days | 7-Days ]
First Last
Prev [ Day | 3-Days | 7-Days ] Next
First Last

Start Time:     :
End Time:     :     
Time (in GMT) :00 :50 :40 :30 :20 :10
Previous Next [ Day | 3-Days | 7-Days ]
First Last
Prev [ Day | 3-Days | 7-Days ] Next
First Last


123 => good data
MM => data is determined as missing
-- => data not received/configured
Back to Top Back to Top
3/3/2017 00:00 to 23:10 26.45 26.25 26.21 26.23 26.29 26.15
3/2/2017 23:00 to 22:10 26.26 26.21 26.12 26.13 26.14 26.17
3/2/2017 22:00 to 21:10 26.13 26.05 26.04 26.05 26.11 26.11
3/2/2017 21:00 to 20:10 26.01 26.02 26.01 26.12 25.93 25.88
3/2/2017 20:00 to 19:10 26.04 26.00 26.10 26.08 26.14 25.94
3/2/2017 19:00 to 18:10 25.91 26.08 26.00 26.15 26.02 26.06
3/2/2017 18:00 to 17:10 26.06 26.21 26.12 26.18 26.20 26.25
3/2/2017 17:00 to 16:10 26.16 26.18 26.19 26.21 26.24 26.25
3/2/2017 16:00 to 15:10 26.33 26.25 26.25 26.14 26.13 25.96
3/2/2017 15:00 to 14:10 26.00 26.06 25.83 25.93 25.75 25.79
3/2/2017 14:00 to 13:10 25.95 25.90 25.77 25.82 25.82 25.91
3/2/2017 13:00 to 12:10 25.86 25.94 25.86 25.90 25.96 25.85
3/2/2017 12:00 to 11:10 25.79 25.86 25.78 25.85 25.92 25.93
3/2/2017 11:00 to 10:10 25.83 25.86 25.79 25.82 25.94 26.03
3/2/2017 10:00 to 9:10 25.81 25.91 25.91 25.91 25.89 25.88
3/2/2017 09:00 to 8:10 26.00 25.98 26.11 26.03 26.08 26.08
3/2/2017 08:00 to 7:10 26.05 26.05 26.13 26.22 26.21 26.20
3/2/2017 07:00 to 6:10 26.18 26.21 26.17 26.19 26.24 26.22
3/2/2017 06:00 to 5:10 26.18 26.28 26.42 26.33 26.35 26.37
3/2/2017 05:00 to 4:10 26.40 26.42 26.39 26.37 26.53 26.44
3/2/2017 04:00 to 3:10 26.47 26.38 26.34 26.39 26.38 26.34
3/2/2017 03:00 to 2:10 26.29 26.37 26.34 26.34 26.32 26.41
3/2/2017 02:00 to 1:10 26.52 26.44 26.60 26.59 26.71 26.63
3/2/2017 01:00 to 0:10 26.58 26.60 26.58 26.59 26.65 26.59
3/2/2017 00:00 to 23:10 26.52 26.41 26.41 26.60 26.49 26.51
3/1/2017 23:00 to 22:10 26.49 26.54 26.56 26.53 26.48 26.38
3/1/2017 22:00 to 21:10 26.36 26.35 26.43 26.42 26.42 26.45
3/1/2017 21:00 to 20:10 26.40 26.40 26.42 26.51 26.35 26.48
3/1/2017 20:00 to 19:10 26.42 26.44 26.27 26.30 26.42 26.37
3/1/2017 19:00 to 18:10 26.44 26.45 26.55 26.50 26.42 26.55
3/1/2017 18:00 to 17:10 26.57 26.45 26.56 26.54 26.71 26.60
3/1/2017 17:00 to 16:10 26.60 26.55 26.52 26.59 26.54 26.54
3/1/2017 16:00 to 15:10 26.66 26.55 26.39 26.35 26.42 26.63
3/1/2017 15:00 to 14:10 26.49 26.39 26.42 26.30 26.37 26.47
3/1/2017 14:00 to 13:10 26.35 26.38 26.19 25.78 25.42 25.54
3/1/2017 13:00 to 12:10 26.48 26.56 26.44 26.52 26.20 26.44
3/1/2017 12:00 to 11:10 26.42 26.31 26.33 26.36 26.34 26.34
3/1/2017 11:00 to 10:10 26.37 26.40 26.34 26.47 26.48 26.25
3/1/2017 10:00 to 9:10 26.48 26.56 26.61 26.51 26.50 26.52
3/1/2017 09:00 to 8:10 26.57 26.61 26.60 26.57 26.64 26.62
3/1/2017 08:00 to 7:10 26.64 26.70 26.72 26.71 26.75 26.69
3/1/2017 07:00 to 6:10 26.73 26.80 26.76 26.78 26.87 26.85
3/1/2017 06:00 to 5:10 26.80 26.80 26.85 26.87 26.87 26.81
3/1/2017 05:00 to 4:10 26.85 26.90 26.91 26.89 26.92 26.92
3/1/2017 04:00 to 3:10 26.94 26.92 26.95 26.92 26.97 26.96
3/1/2017 03:00 to 2:10 26.96 27.04 26.90 26.96 27.11 27.04
3/1/2017 02:00 to 1:10 27.04 27.14 27.07 27.08 27.10 27.05
3/1/2017 01:00 to 0:10 27.02 26.93 26.86 26.81 26.70 26.66
3/1/2017 00:00 to 23:10 26.50 26.38 27.16 27.08 27.06 27.13
2/28/2017 23:00 to 22:10 27.02 27.03 27.04 26.98 26.98 26.96
2/28/2017 22:00 to 21:10 26.73 26.58 26.38 26.34 25.80 25.49
2/28/2017 21:00 to 20:10 25.13 25.06 26.20 26.08 25.78 25.70
2/28/2017 20:00 to 19:10 26.06 26.29 26.28 26.12 25.98 26.41
2/28/2017 19:00 to 18:10 26.14 26.32 26.20 26.55 26.53 26.52
2/28/2017 18:00 to 17:10 26.39 26.40 26.26 26.21 26.16 26.25
2/28/2017 17:00 to 16:10 26.21 26.11 26.10 25.94 25.94 25.86
2/28/2017 16:00 to 15:10 25.82 25.71 25.86 25.77 25.74 25.72
2/28/2017 15:00 to 14:10 25.59 25.49 25.41 25.34 25.31 25.43
2/28/2017 14:00 to 13:10 25.25 25.40 25.40 25.82 25.87 25.86
2/28/2017 13:00 to 12:10 26.03 25.91 26.24 26.27 26.27 26.23
2/28/2017 12:00 to 11:10 26.18 26.16 26.11 26.25 26.14 26.11
2/28/2017 11:00 to 10:10 26.24 26.17 26.13 26.20 26.10 26.14
2/28/2017 10:00 to 9:10 -- -- -- -- -- --
2/28/2017 09:00 to 8:10 26.32 26.29 26.28 26.29 26.29 26.26
2/28/2017 08:00 to 7:10 26.27 26.26 26.34 26.37 26.39 26.44
2/28/2017 07:00 to 6:10 26.40 26.26 26.40 26.39 26.39 26.31
2/28/2017 06:00 to 5:10 26.34 26.29 26.25 26.29 26.17 26.22
2/28/2017 05:00 to 4:10 26.25 26.26 26.21 26.29 26.18 26.11
2/28/2017 04:00 to 3:10 26.14 26.03 26.21 25.96 25.76 25.75
2/28/2017 03:00 to 2:10 26.01 25.82 26.12 26.04 26.17 26.18
2/28/2017 02:00 to 1:10 26.26 26.25 26.37 26.62 26.54 26.45
2/28/2017 01:00 to 0:10 26.57 26.40 26.39 26.30 26.50 26.50
2/28/2017 00:00 to 23:10 26.45 26.25 26.04 26.15 26.11 26.07
2/27/2017 23:00 to 22:10 26.26 26.26 26.37 26.35 26.43 26.33
2/27/2017 22:00 to 21:10 26.22 26.38 26.30 26.34 26.43 26.12
2/27/2017 21:00 to 20:10 26.26 26.22 26.20 26.02 26.08 25.88
2/27/2017 20:00 to 19:10 25.81 25.71 25.69 25.66 25.77 25.65
2/27/2017 19:00 to 18:10 25.63 25.59 25.55 25.54 25.54 25.62
2/27/2017 18:00 to 17:10 25.62 25.61 25.66 25.86 26.07 25.92
2/27/2017 17:00 to 16:10 25.97 26.41 26.28 26.20 26.43 26.44
2/27/2017 16:00 to 15:10 26.23 26.21 25.97 25.83 25.81 25.60
2/27/2017 15:00 to 14:10 25.26 25.25 25.04 24.96 24.99 25.04
2/27/2017 14:00 to 13:10 25.06 25.18 25.23 25.27 25.33 25.42
2/27/2017 13:00 to 12:10 25.31 25.30 25.30 25.33 25.44 25.39
2/27/2017 12:00 to 11:10 25.33 25.39 25.40 25.16 25.20 25.15
2/27/2017 11:00 to 10:10 25.13 25.32 25.18 25.05 25.13 25.16
2/27/2017 10:00 to 9:10 25.22 25.33 25.12 25.08 24.78 24.88
2/27/2017 09:00 to 8:10 24.67 24.54 24.70 24.68 24.69 24.87
2/27/2017 08:00 to 7:10 25.02 24.99 25.28 25.42 25.66 25.47
2/27/2017 07:00 to 6:10 25.59 25.59 25.59 25.51 25.58 25.50
2/27/2017 06:00 to 5:10 25.25 25.54 25.42 25.40 25.35 25.29
2/27/2017 05:00 to 4:10 25.70 25.30 25.06 25.14 25.18 25.04
2/27/2017 04:00 to 3:10 24.85 24.86 24.88 24.75 24.80 24.93
2/27/2017 03:00 to 2:10 25.02 25.10 24.90 25.00 24.82 24.65
2/27/2017 02:00 to 1:10 24.96 24.94 25.04 25.13 25.20 25.56
2/27/2017 01:00 to 0:10 25.79 25.72 25.85 25.88 25.82 25.72
2/27/2017 00:00 to 23:10 25.74 25.59 25.63 25.76 25.57 25.56
2/26/2017 23:00 to 22:10 25.60 25.51 25.56 25.65 25.50 25.58
2/26/2017 22:00 to 21:10 25.48 25.76 26.08 27.05 26.82 26.68
2/26/2017 21:00 to 20:10 26.88 26.55 26.54 26.54 26.49 26.66
2/26/2017 20:00 to 19:10 26.35 26.31 26.35 26.29 26.26 26.26
2/26/2017 19:00 to 18:10 26.22 26.25 26.29 26.17 26.13 26.19
2/26/2017 18:00 to 17:10 26.17 26.03 26.06 26.14 26.14 26.10
2/26/2017 17:00 to 16:10 26.22 26.28 26.38 26.38 26.19 26.41
2/26/2017 16:00 to 15:10 26.08 26.08 26.37 26.11 26.21 25.88
2/26/2017 15:00 to 14:10 26.04 25.91 25.74 25.77 25.79 25.74
2/26/2017 14:00 to 13:10 25.79 25.81 25.79 25.73 25.77 25.80
2/26/2017 13:00 to 12:10 25.85 25.73 25.91 25.91 26.03 25.99
2/26/2017 12:00 to 11:10 25.86 25.75 25.95 25.94 25.89 25.94
2/26/2017 11:00 to 10:10 25.90 25.92 25.97 26.00 25.91 25.92
2/26/2017 10:00 to 9:10 25.92 26.00 25.92 26.04 25.96 26.16
2/26/2017 09:00 to 8:10 26.05 26.07 26.10 26.14 26.12 26.16
2/26/2017 08:00 to 7:10 26.24 26.26 26.17 26.14 26.19 26.22
2/26/2017 07:00 to 6:10 26.23 26.35 26.29 26.40 26.56 26.55
2/26/2017 06:00 to 5:10 26.50 26.53 26.51 26.47 26.54 26.37
2/26/2017 05:00 to 4:10 26.42 26.32 26.29 26.23 26.22 26.29
2/26/2017 04:00 to 3:10 26.37 26.22 26.48 26.53 26.52 26.48
2/26/2017 03:00 to 2:10 26.34 26.01 25.95 25.83 25.81 26.74
2/26/2017 02:00 to 1:10 26.57 26.57 26.64 26.66 26.68 26.70
2/26/2017 01:00 to 0:10 26.64 26.63 26.70 26.82 26.71 26.64
2/26/2017 00:00 to 23:10 26.64 26.61 26.71 26.73 26.68 26.61
2/25/2017 23:00 to 22:10 26.57 26.55 26.49 26.46 26.42 26.46
2/25/2017 22:00 to 21:10 26.46 26.51 26.46 26.37 26.43 26.53
2/25/2017 21:00 to 20:10 26.36 26.42 26.39 26.42 26.54 26.34
2/25/2017 20:00 to 19:10 26.44 26.41 26.41 26.55 26.49 26.45
2/25/2017 19:00 to 18:10 26.63 26.66 26.48 26.51 26.57 26.57
2/25/2017 18:00 to 17:10 26.53 26.57 26.56 26.60 26.61 26.54
2/25/2017 17:00 to 16:10 26.67 26.47 26.56 26.72 26.61 26.56
2/25/2017 16:00 to 15:10 26.71 26.65 26.40 26.30 26.38 26.02
2/25/2017 15:00 to 14:10 26.14 26.11 25.90 25.91 25.79 26.04
2/25/2017 14:00 to 13:10 26.17 26.07 26.03 26.05 25.97 25.83
2/25/2017 13:00 to 12:10 25.74 25.66 25.59 25.63 25.88 25.93
2/25/2017 12:00 to 11:10 26.12 26.21 26.09 26.15 26.17 26.16
2/25/2017 11:00 to 10:10 26.27 26.15 26.15 26.19 26.17 26.25
2/25/2017 10:00 to 9:10 -- -- -- -- -- --
2/25/2017 09:00 to 8:10 26.37 26.39 26.45 26.31 26.39 26.41
2/25/2017 08:00 to 7:10 26.42 26.48 26.25 26.27 26.32 26.14
2/25/2017 07:00 to 6:10 26.26 26.33 26.15 26.17 26.01 25.91
2/25/2017 06:00 to 5:10 25.88 25.72 25.51 25.40 25.48 25.37
2/25/2017 05:00 to 4:10 25.26 25.02 25.09 25.27 25.09 24.89
2/25/2017 04:00 to 3:10 24.87 24.75 25.17 25.30 24.97 25.07
2/25/2017 03:00 to 2:10 25.01 24.89 25.02 24.59 24.93 24.99
2/25/2017 02:00 to 1:10 25.25 25.13 25.54 25.86 26.26 26.31
2/25/2017 01:00 to 0:10 26.56 26.51 26.35 26.15 26.24 26.14
2/25/2017 00:00 to 23:10 25.83 25.74 25.71 26.58 26.61 26.67
2/24/2017 23:00 to 22:10 26.50 27.13 27.20 27.14 27.16 27.14
2/24/2017 22:00 to 21:10 27.04 27.00 27.12 26.99 27.00 27.04
2/24/2017 21:00 to 20:10 27.01 26.98 27.14 27.06 27.05 27.14
2/24/2017 20:00 to 19:10 27.11 27.09 27.06 27.07 27.09 27.06
2/24/2017 19:00 to 18:10 27.10 27.07 27.27 27.31 27.17 27.14
2/24/2017 18:00 to 17:10 26.99 27.25 27.21 27.19 27.04 27.11
2/24/2017 17:00 to 16:10 26.78 26.79 26.83 27.01 26.95 26.83
2/24/2017 16:00 to 15:10 26.42 26.28 26.52 26.53 26.43 26.34
2/24/2017 15:00 to 14:10 26.37 26.17 25.96 26.72 26.60 26.71
2/24/2017 14:00 to 13:10 26.84 26.71 26.66 26.66 26.68 26.67
2/24/2017 13:00 to 12:10 26.58 26.63 26.71 26.54 26.75 26.58
2/24/2017 12:00 to 11:10 26.14 25.89 26.72 26.66 26.71 26.75
2/24/2017 11:00 to 10:10 26.82 26.79 26.78 26.75 26.75 26.89
2/24/2017 10:00 to 9:10 26.83 26.85 26.96 26.92 26.92 26.94
2/24/2017 09:00 to 8:10 26.60 26.13 25.67 24.83 24.97 24.98
2/24/2017 08:00 to 7:10 25.22 24.76 25.38 25.31 25.07 25.41
2/24/2017 07:00 to 6:10 25.72 25.77 26.33 25.60 25.50 25.46
2/24/2017 06:00 to 5:10 25.24 25.14 24.86 26.04 25.90 25.86
2/24/2017 05:00 to 4:10 26.21 26.97 26.90 26.47 27.08 27.20
2/24/2017 04:00 to 3:10 27.26 27.04 27.12 27.15 27.03 27.16
2/24/2017 03:00 to 2:10 27.08 27.08 27.07 27.03 27.20 27.14
2/24/2017 02:00 to 1:10 27.09 27.03 26.86 26.14 26.01 25.78
2/24/2017 01:00 to 0:10 26.28 25.82 25.71 25.61 27.20 27.06